sensor_id;sensor_type;location;lat;lon;timestamp;P1;durP1;ratioP1;P2;durP2;ratioP2
64938;SDS011;51453;47.738;7.420;2023-06-05T00:00:52;6.65;;;3.42;;
64938;SDS011;51453;47.738;7.420;2023-06-05T00:03:18;4.60;;;3.22;;
64938;SDS011;51453;47.738;7.420;2023-06-05T00:05:44;4.40;;;3.50;;
64938;SDS011;51453;47.738;7.420;2023-06-05T00:08:10;5.32;;;3.40;;
64938;SDS011;51453;47.738;7.420;2023-06-05T00:10:36;8.55;;;3.80;;
64938;SDS011;51453;47.738;7.420;2023-06-05T00:13:02;5.20;;;3.05;;
64938;SDS011;51453;47.738;7.420;2023-06-05T00:15:27;6.38;;;3.55;;
64938;SDS011;51453;47.738;7.420;2023-06-05T00:17:53;5.72;;;3.70;;
64938;SDS011;51453;47.738;7.420;2023-06-05T00:20:20;4.95;;;3.40;;
64938;SDS011;51453;47.738;7.420;2023-06-05T00:22:46;4.03;;;3.38;;
64938;SDS011;51453;47.738;7.420;2023-06-05T00:25:12;6.15;;;3.90;;
64938;SDS011;51453;47.738;7.420;2023-06-05T00:27:37;4.13;;;3.40;;
64938;SDS011;51453;47.738;7.420;2023-06-05T00:30:06;5.15;;;3.80;;
64938;SDS011;51453;47.738;7.420;2023-06-05T00:32:33;5.30;;;3.35;;
64938;SDS011;51453;47.738;7.420;2023-06-05T00:34:59;8.18;;;3.50;;
64938;SDS011;51453;47.738;7.420;2023-06-05T00:37:25;4.78;;;3.20;;
64938;SDS011;51453;47.738;7.420;2023-06-05T00:39:52;6.30;;;3.95;;
64938;SDS011;51453;47.738;7.420;2023-06-05T00:42:17;4.85;;;3.33;;
64938;SDS011;51453;47.738;7.420;2023-06-05T00:44:43;5.53;;;3.47;;
64938;SDS011;51453;47.738;7.420;2023-06-05T00:47:09;4.32;;;3.53;;
64938;SDS011;51453;47.738;7.420;2023-06-05T00:49:34;4.55;;;3.58;;
64938;SDS011;51453;47.738;7.420;2023-06-05T00:52:01;3.78;;;2.92;;
64938;SDS011;51453;47.738;7.420;2023-06-05T00:54:27;6.03;;;3.20;;
64938;SDS011;51453;47.738;7.420;2023-06-05T00:56:53;6.57;;;2.95;;
64938;SDS011;51453;47.738;7.420;2023-06-05T00:59:19;5.15;;;2.60;;
64938;SDS011;51453;47.738;7.420;2023-06-05T01:01:45;4.93;;;2.60;;
64938;SDS011;51453;47.738;7.420;2023-06-05T01:04:11;3.47;;;2.33;;
64938;SDS011;51453;47.738;7.420;2023-06-05T01:06:37;3.47;;;2.60;;
64938;SDS011;51453;47.738;7.420;2023-06-05T01:09:08;3.70;;;2.75;;
64938;SDS011;51453;47.738;7.420;2023-06-05T01:11:40;4.82;;;2.25;;
64938;SDS011;51453;47.738;7.420;2023-06-05T01:14:33;3.33;;;2.22;;
64938;SDS011;51453;47.738;7.420;2023-06-05T01:17:01;3.28;;;2.53;;
64938;SDS011;51453;47.738;7.420;2023-06-05T01:19:28;3.55;;;2.50;;
64938;SDS011;51453;47.738;7.420;2023-06-05T01:21:57;4.57;;;2.45;;
64938;SDS011;51453;47.738;7.420;2023-06-05T01:24:23;3.72;;;2.13;;
64938;SDS011;51453;47.738;7.420;2023-06-05T01:29:43;4.72;;;2.22;;
64938;SDS011;51453;47.738;7.420;2023-06-05T01:32:31;3.15;;;2.05;;
64938;SDS011;51453;47.738;7.420;2023-06-05T01:35:06;3.03;;;2.25;;
64938;SDS011;51453;47.738;7.420;2023-06-05T01:37:34;4.68;;;2.20;;
64938;SDS011;51453;47.738;7.420;2023-06-05T01:40:06;2.28;;;1.90;;
64938;SDS011;51453;47.738;7.420;2023-06-05T01:42:36;2.90;;;2.00;;
64938;SDS011;51453;47.738;7.420;2023-06-05T01:45:04;7.78;;;2.60;;
64938;SDS011;51453;47.738;7.420;2023-06-05T01:47:32;4.32;;;2.38;;
64938;SDS011;51453;47.738;7.420;2023-06-05T01:50:02;4.30;;;2.73;;
64938;SDS011;51453;47.738;7.420;2023-06-05T01:52:29;3.50;;;2.70;;
64938;SDS011;51453;47.738;7.420;2023-06-05T01:54:55;5.57;;;2.80;;
64938;SDS011;51453;47.738;7.420;2023-06-05T01:57:24;6.10;;;2.50;;
64938;SDS011;51453;47.738;7.420;2023-06-05T01:59:54;5.20;;;2.67;;
64938;SDS011;51453;47.738;7.420;2023-06-05T02:02:20;9.57;;;2.40;;
64938;SDS011;51453;47.738;7.420;2023-06-05T02:04:47;4.28;;;2.70;;
64938;SDS011;51453;47.738;7.420;2023-06-05T02:07:15;5.10;;;2.72;;
64938;SDS011;51453;47.738;7.420;2023-06-05T02:09:41;4.45;;;2.70;;
64938;SDS011;51453;47.738;7.420;2023-06-05T02:12:07;4.93;;;2.58;;
64938;SDS011;51453;47.738;7.420;2023-06-05T02:14:33;4.82;;;2.30;;
64938;SDS011;51453;47.738;7.420;2023-06-05T02:17:04;3.13;;;2.45;;
64938;SDS011;51453;47.738;7.420;2023-06-05T02:19:31;3.55;;;2.90;;
64938;SDS011;51453;47.738;7.420;2023-06-05T02:21:57;4.30;;;2.30;;
64938;SDS011;51453;47.738;7.420;2023-06-05T02:24:23;4.28;;;2.60;;
64938;SDS011;51453;47.738;7.420;2023-06-05T02:26:50;4.95;;;2.22;;
64938;SDS011;51453;47.738;7.420;2023-06-05T02:29:16;3.13;;;2.40;;
64938;SDS011;51453;47.738;7.420;2023-06-05T02:31:42;3.88;;;2.28;;
64938;SDS011;51453;47.738;7.420;2023-06-05T02:34:08;7.20;;;2.53;;
64938;SDS011;51453;47.738;7.420;2023-06-05T02:36:34;4.88;;;2.90;;
64938;SDS011;51453;47.738;7.420;2023-06-05T02:39:00;4.55;;;2.60;;
64938;SDS011;51453;47.738;7.420;2023-06-05T02:41:26;4.82;;;2.50;;
64938;SDS011;51453;47.738;7.420;2023-06-05T02:43:53;4.20;;;2.55;;
64938;SDS011;51453;47.738;7.420;2023-06-05T02:46:20;4.88;;;2.53;;
64938;SDS011;51453;47.738;7.420;2023-06-05T02:48:46;6.57;;;2.53;;
64938;SDS011;51453;47.738;7.420;2023-06-05T02:51:12;5.72;;;2.28;;
64938;SDS011;51453;47.738;7.420;2023-06-05T02:53:38;6.03;;;2.63;;
64938;SDS011;51453;47.738;7.420;2023-06-05T02:56:04;2.70;;;2.45;;
64938;SDS011;51453;47.738;7.420;2023-06-05T02:58:30;5.57;;;2.30;;
64938;SDS011;51453;47.738;7.420;2023-06-05T03:00:58;3.30;;;2.20;;
64938;SDS011;51453;47.738;7.420;2023-06-05T03:03:35;5.05;;;2.33;;
64938;SDS011;51453;47.738;7.420;2023-06-05T03:06:02;4.13;;;2.90;;
64938;SDS011;51453;47.738;7.420;2023-06-05T03:08:32;4.72;;;2.53;;
64938;SDS011;51453;47.738;7.420;2023-06-05T03:10:59;5.78;;;3.17;;
64938;SDS011;51453;47.738;7.420;2023-06-05T03:13:26;4.65;;;2.85;;
64938;SDS011;51453;47.738;7.420;2023-06-05T03:15:52;6.45;;;2.70;;
64938;SDS011;51453;47.738;7.420;2023-06-05T03:18:21;4.43;;;2.60;;
64938;SDS011;51453;47.738;7.420;2023-06-05T03:20:50;5.32;;;2.83;;
64938;SDS011;51453;47.738;7.420;2023-06-05T03:23:22;5.60;;;2.83;;
64938;SDS011;51453;47.738;7.420;2023-06-05T03:25:49;5.55;;;2.80;;
64938;SDS011;51453;47.738;7.420;2023-06-05T03:28:16;6.90;;;2.67;;
64938;SDS011;51453;47.738;7.420;2023-06-05T03:30:42;3.50;;;2.50;;
64938;SDS011;51453;47.738;7.420;2023-06-05T03:33:09;4.45;;;2.35;;
64938;SDS011;51453;47.738;7.420;2023-06-05T03:35:34;5.00;;;2.63;;
64938;SDS011;51453;47.738;7.420;2023-06-05T03:38:00;6.93;;;2.65;;
64938;SDS011;51453;47.738;7.420;2023-06-05T03:40:26;6.18;;;2.88;;
64938;SDS011;51453;47.738;7.420;2023-06-05T03:42:52;7.80;;;2.65;;
64938;SDS011;51453;47.738;7.420;2023-06-05T03:45:17;9.75;;;2.97;;
64938;SDS011;51453;47.738;7.420;2023-06-05T03:47:43;5.35;;;2.85;;
64938;SDS011;51453;47.738;7.420;2023-06-05T03:50:10;6.05;;;2.80;;
64938;SDS011;51453;47.738;7.420;2023-06-05T03:52:37;6.80;;;2.90;;
64938;SDS011;51453;47.738;7.420;2023-06-05T03:55:04;4.63;;;2.90;;
64938;SDS011;51453;47.738;7.420;2023-06-05T03:57:32;5.35;;;3.13;;
64938;SDS011;51453;47.738;7.420;2023-06-05T03:59:59;5.18;;;3.15;;
64938;SDS011;51453;47.738;7.420;2023-06-05T04:02:25;4.50;;;2.88;;
64938;SDS011;51453;47.738;7.420;2023-06-05T04:04:50;4.63;;;2.95;;
64938;SDS011;51453;47.738;7.420;2023-06-05T04:07:16;3.65;;;2.95;;
64938;SDS011;51453;47.738;7.420;2023-06-05T04:09:42;7.40;;;3.00;;
64938;SDS011;51453;47.738;7.420;2023-06-05T04:12:08;4.70;;;2.88;;
64938;SDS011;51453;47.738;7.420;2023-06-05T04:14:38;4.28;;;2.70;;
64938;SDS011;51453;47.738;7.420;2023-06-05T04:17:04;4.63;;;2.40;;
64938;SDS011;51453;47.738;7.420;2023-06-05T04:19:30;3.85;;;2.85;;
64938;SDS011;51453;47.738;7.420;2023-06-05T04:21:56;4.22;;;3.05;;
64938;SDS011;51453;47.738;7.420;2023-06-05T04:24:21;5.40;;;2.90;;
64938;SDS011;51453;47.738;7.420;2023-06-05T04:26:50;8.02;;;3.72;;
64938;SDS011;51453;47.738;7.420;2023-06-05T04:29:17;8.30;;;5.30;;
64938;SDS011;51453;47.738;7.420;2023-06-05T04:31:43;9.88;;;5.57;;
64938;SDS011;51453;47.738;7.420;2023-06-05T04:34:11;11.63;;;6.50;;
64938;SDS011;51453;47.738;7.420;2023-06-05T04:36:37;13.32;;;6.75;;
64938;SDS011;51453;47.738;7.420;2023-06-05T04:39:04;9.82;;;6.22;;
64938;SDS011;51453;47.738;7.420;2023-06-05T04:41:31;8.73;;;4.65;;
64938;SDS011;51453;47.738;7.420;2023-06-05T04:43:58;9.15;;;5.80;;
64938;SDS011;51453;47.738;7.420;2023-06-05T04:46:25;11.20;;;5.30;;
64938;SDS011;51453;47.738;7.420;2023-06-05T04:48:51;9.25;;;4.95;;
64938;SDS011;51453;47.738;7.420;2023-06-05T04:51:20;7.93;;;4.75;;
64938;SDS011;51453;47.738;7.420;2023-06-05T04:53:49;8.27;;;4.18;;
64938;SDS011;51453;47.738;7.420;2023-06-05T04:56:17;8.07;;;4.60;;
64938;SDS011;51453;47.738;7.420;2023-06-05T04:58:43;9.43;;;5.15;;
64938;SDS011;51453;47.738;7.420;2023-06-05T05:01:10;9.48;;;4.25;;
64938;SDS011;51453;47.738;7.420;2023-06-05T05:03:36;4.93;;;3.63;;
64938;SDS011;51453;47.738;7.420;2023-06-05T05:06:02;5.13;;;3.80;;
64938;SDS011;51453;47.738;7.420;2023-06-05T05:08:27;7.43;;;3.72;;
64938;SDS011;51453;47.738;7.420;2023-06-05T05:10:53;6.72;;;3.45;;
64938;SDS011;51453;47.738;7.420;2023-06-05T05:13:19;4.85;;;3.22;;
64938;SDS011;51453;47.738;7.420;2023-06-05T05:15:44;4.25;;;2.70;;
64938;SDS011;51453;47.738;7.420;2023-06-05T05:18:11;3.30;;;2.78;;
64938;SDS011;51453;47.738;7.420;2023-06-05T05:20:37;11.05;;;3.10;;
64938;SDS011;51453;47.738;7.420;2023-06-05T05:23:03;3.72;;;2.35;;
64938;SDS011;51453;47.738;7.420;2023-06-05T05:25:32;3.20;;;2.40;;
64938;SDS011;51453;47.738;7.420;2023-06-05T05:27:58;5.88;;;2.83;;
64938;SDS011;51453;47.738;7.420;2023-06-05T05:30:23;4.00;;;2.47;;
64938;SDS011;51453;47.738;7.420;2023-06-05T05:32:49;7.50;;;2.88;;
64938;SDS011;51453;47.738;7.420;2023-06-05T05:35:14;5.13;;;2.70;;
64938;SDS011;51453;47.738;7.420;2023-06-05T05:37:40;4.25;;;2.70;;
64938;SDS011;51453;47.738;7.420;2023-06-05T05:40:06;4.95;;;2.80;;
64938;SDS011;51453;47.738;7.420;2023-06-05T05:42:32;3.47;;;2.97;;
64938;SDS011;51453;47.738;7.420;2023-06-05T05:44:57;11.30;;;2.95;;
64938;SDS011;51453;47.738;7.420;2023-06-05T05:47:23;8.57;;;3.60;;
64938;SDS011;51453;47.738;7.420;2023-06-05T05:49:49;4.57;;;3.10;;
64938;SDS011;51453;47.738;7.420;2023-06-05T05:52:14;4.57;;;2.83;;
64938;SDS011;51453;47.738;7.420;2023-06-05T05:54:40;7.47;;;3.15;;
64938;SDS011;51453;47.738;7.420;2023-06-05T05:57:06;5.20;;;3.10;;
64938;SDS011;51453;47.738;7.420;2023-06-05T05:59:32;6.30;;;3.10;;
64938;SDS011;51453;47.738;7.420;2023-06-05T06:01:57;3.70;;;2.70;;
64938;SDS011;51453;47.738;7.420;2023-06-05T06:04:25;6.60;;;2.97;;
64938;SDS011;51453;47.738;7.420;2023-06-05T06:06:51;6.10;;;2.75;;
64938;SDS011;51453;47.738;7.420;2023-06-05T06:09:17;6.63;;;2.85;;
64938;SDS011;51453;47.738;7.420;2023-06-05T06:11:43;5.95;;;3.00;;
64938;SDS011;51453;47.738;7.420;2023-06-05T06:14:09;4.80;;;2.72;;
64938;SDS011;51453;47.738;7.420;2023-06-05T06:16:36;5.88;;;3.40;;
64938;SDS011;51453;47.738;7.420;2023-06-05T06:19:03;6.70;;;3.20;;
64938;SDS011;51453;47.738;7.420;2023-06-05T06:21:29;5.70;;;2.95;;
64938;SDS011;51453;47.738;7.420;2023-06-05T06:23:55;3.75;;;2.80;;
64938;SDS011;51453;47.738;7.420;2023-06-05T06:26:25;5.97;;;2.80;;
64938;SDS011;51453;47.738;7.420;2023-06-05T06:28:51;5.30;;;2.85;;
64938;SDS011;51453;47.738;7.420;2023-06-05T06:31:19;4.88;;;2.58;;
64938;SDS011;51453;47.738;7.420;2023-06-05T06:33:45;4.47;;;2.60;;
64938;SDS011;51453;47.738;7.420;2023-06-05T06:36:11;4.45;;;3.03;;
64938;SDS011;51453;47.738;7.420;2023-06-05T06:38:37;3.97;;;2.50;;
64938;SDS011;51453;47.738;7.420;2023-06-05T06:41:02;5.00;;;2.80;;
64938;SDS011;51453;47.738;7.420;2023-06-05T06:43:28;4.68;;;2.70;;
64938;SDS011;51453;47.738;7.420;2023-06-05T06:45:54;4.43;;;3.05;;
64938;SDS011;51453;47.738;7.420;2023-06-05T06:48:19;5.38;;;2.65;;
64938;SDS011;51453;47.738;7.420;2023-06-05T06:50:45;7.95;;;2.83;;
64938;SDS011;51453;47.738;7.420;2023-06-05T06:53:11;5.63;;;2.97;;
64938;SDS011;51453;47.738;7.420;2023-06-05T06:55:38;5.32;;;2.95;;
64938;SDS011;51453;47.738;7.420;2023-06-05T06:58:04;4.97;;;2.65;;
64938;SDS011;51453;47.738;7.420;2023-06-05T07:00:30;3.97;;;3.10;;
64938;SDS011;51453;47.738;7.420;2023-06-05T07:02:56;6.82;;;2.80;;
64938;SDS011;51453;47.738;7.420;2023-06-05T07:05:21;4.90;;;2.63;;
64938;SDS011;51453;47.738;7.420;2023-06-05T07:07:47;2.50;;;2.30;;
64938;SDS011;51453;47.738;7.420;2023-06-05T07:10:13;4.00;;;2.60;;
64938;SDS011;51453;47.738;7.420;2023-06-05T07:12:38;4.60;;;2.50;;
64938;SDS011;51453;47.738;7.420;2023-06-05T07:15:04;4.72;;;2.90;;
64938;SDS011;51453;47.738;7.420;2023-06-05T07:17:30;7.32;;;2.40;;
64938;SDS011;51453;47.738;7.420;2023-06-05T07:19:56;4.85;;;2.80;;
64938;SDS011;51453;47.738;7.420;2023-06-05T07:22:22;6.63;;;3.17;;
64938;SDS011;51453;47.738;7.420;2023-06-05T07:24:49;4.95;;;3.20;;
64938;SDS011;51453;47.738;7.420;2023-06-05T07:27:16;5.88;;;3.17;;
64938;SDS011;51453;47.738;7.420;2023-06-05T07:29:42;6.10;;;3.65;;
64938;SDS011;51453;47.738;7.420;2023-06-05T07:32:07;5.72;;;2.83;;
64938;SDS011;51453;47.738;7.420;2023-06-05T07:34:33;8.25;;;3.17;;
64938;SDS011;51453;47.738;7.420;2023-06-05T07:36:59;6.50;;;3.35;;
64938;SDS011;51453;47.738;7.420;2023-06-05T07:39:25;3.38;;;2.67;;
64938;SDS011;51453;47.738;7.420;2023-06-05T07:41:51;7.57;;;2.70;;
64938;SDS011;51453;47.738;7.420;2023-06-05T07:44:18;6.00;;;3.33;;
64938;SDS011;51453;47.738;7.420;2023-06-05T07:46:44;5.53;;;3.10;;
64938;SDS011;51453;47.738;7.420;2023-06-05T07:49:11;7.18;;;3.13;;
64938;SDS011;51453;47.738;7.420;2023-06-05T07:51:37;4.93;;;3.00;;
64938;SDS011;51453;47.738;7.420;2023-06-05T07:54:04;7.00;;;3.28;;
64938;SDS011;51453;47.738;7.420;2023-06-05T07:56:31;4.40;;;2.70;;
64938;SDS011;51453;47.738;7.420;2023-06-05T07:58:58;4.57;;;3.03;;
64938;SDS011;51453;47.738;7.420;2023-06-05T08:01:24;4.65;;;2.97;;
64938;SDS011;51453;47.738;7.420;2023-06-05T08:03:50;10.90;;;3.78;;
64938;SDS011;51453;47.738;7.420;2023-06-05T08:06:16;14.50;;;2.58;;
64938;SDS011;51453;47.738;7.420;2023-06-05T08:08:42;5.63;;;2.85;;
64938;SDS011;51453;47.738;7.420;2023-06-05T08:11:08;8.77;;;2.72;;
64938;SDS011;51453;47.738;7.420;2023-06-05T08:13:34;7.68;;;2.65;;
64938;SDS011;51453;47.738;7.420;2023-06-05T08:16:01;12.95;;;2.72;;
64938;SDS011;51453;47.738;7.420;2023-06-05T08:18:27;7.43;;;2.80;;
64938;SDS011;51453;47.738;7.420;2023-06-05T08:20:53;7.35;;;2.67;;
64938;SDS011;51453;47.738;7.420;2023-06-05T08:23:18;4.35;;;2.42;;
64938;SDS011;51453;47.738;7.420;2023-06-05T08:25:44;7.82;;;2.60;;
64938;SDS011;51453;47.738;7.420;2023-06-05T08:28:10;6.22;;;2.65;;
64938;SDS011;51453;47.738;7.420;2023-06-05T08:30:35;3.22;;;2.53;;
64938;SDS011;51453;47.738;7.420;2023-06-05T08:33:01;3.40;;;2.80;;
64938;SDS011;51453;47.738;7.420;2023-06-05T08:35:27;4.53;;;2.67;;
64938;SDS011;51453;47.738;7.420;2023-06-05T08:37:53;5.38;;;2.42;;
64938;SDS011;51453;47.738;7.420;2023-06-05T08:40:18;6.10;;;2.97;;
64938;SDS011;51453;47.738;7.420;2023-06-05T08:42:44;4.43;;;2.50;;
64938;SDS011;51453;47.738;7.420;2023-06-05T08:45:10;4.53;;;2.78;;
64938;SDS011;51453;47.738;7.420;2023-06-05T08:47:37;5.00;;;2.83;;
64938;SDS011;51453;47.738;7.420;2023-06-05T08:50:04;3.22;;;2.80;;
64938;SDS011;51453;47.738;7.420;2023-06-05T08:52:38;6.15;;;2.90;;
64938;SDS011;51453;47.738;7.420;2023-06-05T08:55:07;4.28;;;2.55;;
64938;SDS011;51453;47.738;7.420;2023-06-05T08:57:34;5.75;;;2.90;;
64938;SDS011;51453;47.738;7.420;2023-06-05T09:00:03;5.60;;;3.05;;
64938;SDS011;51453;47.738;7.420;2023-06-05T09:02:32;4.85;;;3.03;;
64938;SDS011;51453;47.738;7.420;2023-06-05T09:04:58;4.05;;;2.72;;
64938;SDS011;51453;47.738;7.420;2023-06-05T09:07:26;7.07;;;2.88;;
64938;SDS011;51453;47.738;7.420;2023-06-05T09:09:53;5.05;;;2.67;;
64938;SDS011;51453;47.738;7.420;2023-06-05T09:12:19;5.18;;;2.50;;
64938;SDS011;51453;47.738;7.420;2023-06-05T09:14:45;7.00;;;2.90;;
64938;SDS011;51453;47.738;7.420;2023-06-05T09:17:12;9.35;;;2.60;;
64938;SDS011;51453;47.738;7.420;2023-06-05T09:19:39;4.88;;;2.80;;
64938;SDS011;51453;47.738;7.420;2023-06-05T09:22:08;5.13;;;2.45;;
64938;SDS011;51453;47.738;7.420;2023-06-05T09:24:35;3.20;;;2.72;;
64938;SDS011;51453;47.738;7.420;2023-06-05T09:27:09;3.40;;;2.70;;
64938;SDS011;51453;47.738;7.420;2023-06-05T09:29:40;5.00;;;2.95;;
64938;SDS011;51453;47.738;7.420;2023-06-05T09:34:40;4.30;;;2.90;;
64938;SDS011;51453;47.738;7.420;2023-06-05T09:37:07;3.20;;;2.90;;
64938;SDS011;51453;47.738;7.420;2023-06-05T09:39:38;3.28;;;2.30;;
64938;SDS011;51453;47.738;7.420;2023-06-05T09:42:09;7.32;;;2.70;;
64938;SDS011;51453;47.738;7.420;2023-06-05T09:44:35;2.58;;;2.38;;
64938;SDS011;51453;47.738;7.420;2023-06-05T09:49:31;3.25;;;2.65;;
64938;SDS011;51453;47.738;7.420;2023-06-05T09:51:58;7.45;;;3.30;;
64938;SDS011;51453;47.738;7.420;2023-06-05T09:54:25;3.30;;;2.83;;
64938;SDS011;51453;47.738;7.420;2023-06-05T09:56:55;4.22;;;2.80;;
64938;SDS011;51453;47.738;7.420;2023-06-05T09:59:23;4.70;;;2.97;;
64938;SDS011;51453;47.738;7.420;2023-06-05T10:01:55;3.42;;;2.97;;
64938;SDS011;51453;47.738;7.420;2023-06-05T10:04:22;7.05;;;3.10;;
64938;SDS011;51453;47.738;7.420;2023-06-05T10:06:50;34.88;;;7.25;;
64938;SDS011;51453;47.738;7.420;2023-06-05T10:09:17;4.25;;;3.45;;
64938;SDS011;51453;47.738;7.420;2023-06-05T10:11:43;4.32;;;3.10;;
64938;SDS011;51453;47.738;7.420;2023-06-05T10:14:14;4.68;;;2.97;;
64938;SDS011;51453;47.738;7.420;2023-06-05T10:16:40;4.65;;;2.90;;
64938;SDS011;51453;47.738;7.420;2023-06-05T10:19:07;4.82;;;2.90;;
64938;SDS011;51453;47.738;7.420;2023-06-05T10:21:34;7.47;;;2.92;;
64938;SDS011;51453;47.738;7.420;2023-06-05T10:31:45;6.10;;;3.30;;
64938;SDS011;51453;47.738;7.420;2023-06-05T10:39:53;5.82;;;3.10;;
64938;SDS011;51453;47.738;7.420;2023-06-05T10:42:25;6.70;;;3.63;;
64938;SDS011;51453;47.738;7.420;2023-06-05T10:44:52;3.88;;;3.15;;
64938;SDS011;51453;47.738;7.420;2023-06-05T10:52:41;7.97;;;3.75;;
64938;SDS011;51453;47.738;7.420;2023-06-05T10:55:07;5.45;;;3.50;;
64938;SDS011;51453;47.738;7.420;2023-06-05T11:06:25;7.15;;;3.30;;
64938;SDS011;51453;47.738;7.420;2023-06-05T11:11:55;4.60;;;2.80;;
64938;SDS011;51453;47.738;7.420;2023-06-05T11:14:22;4.20;;;3.35;;
64938;SDS011;51453;47.738;7.420;2023-06-05T11:16:48;6.15;;;3.10;;
64938;SDS011;51453;47.738;7.420;2023-06-05T11:22:06;7.75;;;3.05;;
64938;SDS011;51453;47.738;7.420;2023-06-05T11:24:32;3.92;;;3.50;;
64938;SDS011;51453;47.738;7.420;2023-06-05T11:26:59;4.40;;;3.63;;
64938;SDS011;51453;47.738;7.420;2023-06-05T11:29:25;4.75;;;3.40;;
64938;SDS011;51453;47.738;7.420;2023-06-05T11:35:15;3.60;;;3.25;;
64938;SDS011;51453;47.738;7.420;2023-06-05T11:37:41;4.00;;;3.35;;
64938;SDS011;51453;47.738;7.420;2023-06-05T11:40:10;6.43;;;3.63;;
64938;SDS011;51453;47.738;7.420;2023-06-05T11:42:39;5.72;;;3.53;;
64938;SDS011;51453;47.738;7.420;2023-06-05T11:45:12;7.28;;;3.65;;
64938;SDS011;51453;47.738;7.420;2023-06-05T11:47:43;6.78;;;3.47;;
64938;SDS011;51453;47.738;7.420;2023-06-05T11:53:54;5.22;;;3.67;;
64938;SDS011;51453;47.738;7.420;2023-06-05T11:56:22;7.32;;;3.63;;
64938;SDS011;51453;47.738;7.420;2023-06-05T11:58:50;4.82;;;3.28;;
64938;SDS011;51453;47.738;7.420;2023-06-05T12:01:18;5.57;;;3.60;;
64938;SDS011;51453;47.738;7.420;2023-06-05T12:04:03;7.53;;;5.05;;
64938;SDS011;51453;47.738;7.420;2023-06-05T12:06:30;7.57;;;4.13;;
64938;SDS011;51453;47.738;7.420;2023-06-05T12:09:06;8.02;;;3.55;;
64938;SDS011;51453;47.738;7.420;2023-06-05T12:11:36;6.97;;;3.40;;
64938;SDS011;51453;47.738;7.420;2023-06-05T12:14:06;5.50;;;3.60;;
64938;SDS011;51453;47.738;7.420;2023-06-05T12:19:01;3.95;;;3.50;;
64938;SDS011;51453;47.738;7.420;2023-06-05T12:21:35;4.00;;;3.40;;
64938;SDS011;51453;47.738;7.420;2023-06-05T12:24:01;6.28;;;3.80;;
64938;SDS011;51453;47.738;7.420;2023-06-05T12:26:28;5.65;;;3.50;;
64938;SDS011;51453;47.738;7.420;2023-06-05T12:29:04;4.63;;;3.70;;
64938;SDS011;51453;47.738;7.420;2023-06-05T12:31:34;4.20;;;3.80;;
64938;SDS011;51453;47.738;7.420;2023-06-05T12:36:28;5.57;;;3.65;;
64938;SDS011;51453;47.738;7.420;2023-06-05T12:38:54;5.03;;;3.65;;
64938;SDS011;51453;47.738;7.420;2023-06-05T12:41:20;5.03;;;3.50;;
64938;SDS011;51453;47.738;7.420;2023-06-05T12:43:45;3.72;;;3.38;;
64938;SDS011;51453;47.738;7.420;2023-06-05T12:46:23;6.80;;;3.40;;
64938;SDS011;51453;47.738;7.420;2023-06-05T12:48:48;5.68;;;3.33;;
64938;SDS011;51453;47.738;7.420;2023-06-05T12:51:14;3.85;;;3.45;;
64938;SDS011;51453;47.738;7.420;2023-06-05T12:53:40;3.75;;;3.13;;
64938;SDS011;51453;47.738;7.420;2023-06-05T12:56:06;6.47;;;3.35;;
64938;SDS011;51453;47.738;7.420;2023-06-05T12:58:31;5.82;;;3.00;;
64938;SDS011;51453;47.738;7.420;2023-06-05T13:00:57;6.35;;;3.63;;
64938;SDS011;51453;47.738;7.420;2023-06-05T13:03:23;5.32;;;3.25;;
64938;SDS011;51453;47.738;7.420;2023-06-05T13:05:49;5.47;;;3.28;;
64938;SDS011;51453;47.738;7.420;2023-06-05T13:08:15;9.90;;;3.38;;
64938;SDS011;51453;47.738;7.420;2023-06-05T13:10:41;5.03;;;3.28;;
64938;SDS011;51453;47.738;7.420;2023-06-05T13:13:06;5.65;;;3.38;;
64938;SDS011;51453;47.738;7.420;2023-06-05T13:15:32;5.93;;;3.33;;
64938;SDS011;51453;47.738;7.420;2023-06-05T13:17:58;8.38;;;3.55;;
64938;SDS011;51453;47.738;7.420;2023-06-05T13:20:23;5.55;;;3.38;;
64938;SDS011;51453;47.738;7.420;2023-06-05T13:22:50;4.55;;;3.05;;
64938;SDS011;51453;47.738;7.420;2023-06-05T13:25:16;4.07;;;3.20;;
64938;SDS011;51453;47.738;7.420;2023-06-05T13:27:42;3.45;;;2.85;;
64938;SDS011;51453;47.738;7.420;2023-06-05T13:30:08;6.75;;;3.22;;
64938;SDS011;51453;47.738;7.420;2023-06-05T13:32:34;7.18;;;3.88;;
64938;SDS011;51453;47.738;7.420;2023-06-05T13:35:03;5.70;;;3.67;;
64938;SDS011;51453;47.738;7.420;2023-06-05T13:37:29;3.58;;;3.28;;
64938;SDS011;51453;47.738;7.420;2023-06-05T13:39:55;8.55;;;3.80;;
64938;SDS011;51453;47.738;7.420;2023-06-05T13:42:21;5.47;;;3.30;;
64938;SDS011;51453;47.738;7.420;2023-06-05T13:44:47;6.45;;;3.42;;
64938;SDS011;51453;47.738;7.420;2023-06-05T13:47:12;6.55;;;3.47;;
64938;SDS011;51453;47.738;7.420;2023-06-05T13:49:38;4.55;;;3.15;;
64938;SDS011;51453;47.738;7.420;2023-06-05T13:52:04;5.47;;;3.67;;
64938;SDS011;51453;47.738;7.420;2023-06-05T13:54:31;5.10;;;3.13;;
64938;SDS011;51453;47.738;7.420;2023-06-05T13:56:56;6.25;;;3.75;;
64938;SDS011;51453;47.738;7.420;2023-06-05T13:59:24;4.22;;;3.35;;
64938;SDS011;51453;47.738;7.420;2023-06-05T14:01:49;5.80;;;3.50;;
64938;SDS011;51453;47.738;7.420;2023-06-05T14:04:15;8.45;;;3.55;;
64938;SDS011;51453;47.738;7.420;2023-06-05T14:06:41;6.78;;;3.50;;
64938;SDS011;51453;47.738;7.420;2023-06-05T14:09:07;7.07;;;3.25;;
64938;SDS011;51453;47.738;7.420;2023-06-05T14:11:33;5.63;;;3.33;;
64938;SDS011;51453;47.738;7.420;2023-06-05T14:13:59;5.22;;;3.40;;
64938;SDS011;51453;47.738;7.420;2023-06-05T14:16:25;5.68;;;3.30;;
64938;SDS011;51453;47.738;7.420;2023-06-05T14:18:51;3.88;;;3.40;;
64938;SDS011;51453;47.738;7.420;2023-06-05T14:21:16;6.93;;;3.53;;
64938;SDS011;51453;47.738;7.420;2023-06-05T14:23:42;4.70;;;3.42;;
64938;SDS011;51453;47.738;7.420;2023-06-05T14:26:07;8.10;;;3.90;;
64938;SDS011;51453;47.738;7.420;2023-06-05T14:28:33;5.78;;;3.90;;
64938;SDS011;51453;47.738;7.420;2023-06-05T14:31:00;6.07;;;3.40;;
64938;SDS011;51453;47.738;7.420;2023-06-05T14:33:26;3.70;;;3.40;;
64938;SDS011;51453;47.738;7.420;2023-06-05T14:35:52;6.75;;;3.40;;
64938;SDS011;51453;47.738;7.420;2023-06-05T14:38:17;4.00;;;3.60;;
64938;SDS011;51453;47.738;7.420;2023-06-05T14:40:43;4.95;;;3.55;;
64938;SDS011;51453;47.738;7.420;2023-06-05T14:43:09;4.88;;;3.42;;
64938;SDS011;51453;47.738;7.420;2023-06-05T14:45:35;4.75;;;3.20;;
64938;SDS011;51453;47.738;7.420;2023-06-05T14:48:00;4.18;;;3.50;;
64938;SDS011;51453;47.738;7.420;2023-06-05T14:50:26;6.90;;;3.65;;
64938;SDS011;51453;47.738;7.420;2023-06-05T14:52:51;3.78;;;3.40;;
64938;SDS011;51453;47.738;7.420;2023-06-05T14:55:18;4.20;;;3.40;;
64938;SDS011;51453;47.738;7.420;2023-06-05T14:57:43;4.03;;;3.50;;
64938;SDS011;51453;47.738;7.420;2023-06-05T15:00:09;4.20;;;3.28;;
64938;SDS011;51453;47.738;7.420;2023-06-05T15:02:35;4.65;;;3.50;;
64938;SDS011;51453;47.738;7.420;2023-06-05T15:05:01;4.55;;;3.40;;
64938;SDS011;51453;47.738;7.420;2023-06-05T15:07:38;5.93;;;3.80;;
64938;SDS011;51453;47.738;7.420;2023-06-05T15:10:05;9.02;;;3.90;;
64938;SDS011;51453;47.738;7.420;2023-06-05T15:12:32;5.13;;;3.80;;
64938;SDS011;51453;47.738;7.420;2023-06-05T15:14:59;4.85;;;3.70;;
64938;SDS011;51453;47.738;7.420;2023-06-05T15:17:24;4.72;;;3.38;;
64938;SDS011;51453;47.738;7.420;2023-06-05T15:19:50;4.80;;;3.85;;
64938;SDS011;51453;47.738;7.420;2023-06-05T15:22:15;7.07;;;3.60;;
64938;SDS011;51453;47.738;7.420;2023-06-05T15:24:41;5.57;;;3.30;;
64938;SDS011;51453;47.738;7.420;2023-06-05T15:27:07;4.10;;;3.65;;
64938;SDS011;51453;47.738;7.420;2023-06-05T15:29:33;6.97;;;3.58;;
64938;SDS011;51453;47.738;7.420;2023-06-05T15:31:59;4.68;;;3.53;;
64938;SDS011;51453;47.738;7.420;2023-06-05T15:34:25;5.00;;;3.80;;
64938;SDS011;51453;47.738;7.420;2023-06-05T15:36:51;4.97;;;3.78;;
64938;SDS011;51453;47.738;7.420;2023-06-05T15:39:16;4.03;;;3.55;;